createdAt,value
2019-06-07T00:03:24.005Z,100056.42
2019-06-07T00:07:23.059Z,100053.39
2019-06-07T00:11:31.039Z,100049.88
2019-06-07T00:15:39.474Z,100051.88
2019-06-07T00:19:47.196Z,100048.84
2019-06-07T00:23:55.356Z,100038.42
2019-06-07T00:28:03.205Z,100035.70
2019-06-07T00:32:11.741Z,100027.70
2019-06-07T00:36:23.256Z,100034.89
2019-06-07T00:40:32.447Z,100036.65
2019-06-07T00:44:40.547Z,100026.87
2019-06-07T00:48:48.616Z,100026.45
2019-06-07T00:53:14.576Z,100030.61
2019-06-07T00:57:06.920Z,100027.63
2019-06-07T01:01:17.582Z,100020.83
2019-06-07T01:05:31.120Z,100027.88
2019-06-07T01:09:34.884Z,100023.59
2019-06-07T01:13:42.551Z,100022.86
2019-06-07T01:18:32.930Z,100016.97
2019-06-07T01:22:00.828Z,100015.45
2019-06-07T01:26:09.567Z,100016.28
2019-06-07T01:30:19.039Z,100006.15
2019-06-07T01:34:29.092Z,99998.77
2019-06-07T01:38:36.818Z,100001.69
2019-06-07T01:42:44.939Z,100012.84
2019-06-07T01:46:52.953Z,100006.98
2019-06-07T01:51:01.169Z,100014.55
2019-06-07T01:55:09.556Z,100013.53
2019-06-07T01:59:17.801Z,100014.98
2019-06-07T02:03:29.362Z,100017.65
2019-06-07T02:07:35.478Z,100023.37
2019-06-07T02:11:43.237Z,100024.57
2019-06-07T02:15:51.432Z,100019.05
2019-06-07T02:19:58.822Z,100018.05
2019-06-07T02:24:07.075Z,100016.70
2019-06-07T02:28:31.975Z,100018.86
2019-06-07T02:32:28.863Z,100017.31
2019-06-07T02:36:40.905Z,100023.07
2019-06-07T02:40:45.128Z,100020.98
2019-06-07T02:44:52.999Z,100022.55
2019-06-07T02:49:00.611Z,100022.08
2019-06-07T02:53:08.315Z,100028.97
2019-06-07T02:57:17.404Z,100037.78
2019-06-07T03:01:28.556Z,100041.50
2019-06-07T03:05:40.292Z,100039.53
2019-06-07T03:09:47.153Z,100046.53
2019-06-07T03:13:57.073Z,100048.22
2019-06-07T03:18:11.622Z,100056.86
2019-06-07T03:22:19.674Z,100061.08
2019-06-07T03:26:30.421Z,100066.00
2019-06-07T03:30:52.254Z,100065.13
2019-06-07T03:34:47.186Z,100057.01
2019-06-07T03:38:55.609Z,100065.86
2019-06-07T03:43:03.551Z,100060.81
2019-06-07T03:47:11.131Z,100067.60
2019-06-07T03:51:25.157Z,100079.99
2019-06-07T03:55:30.553Z,100080.23
2019-06-07T03:59:40.952Z,100074.28
2019-06-07T04:03:51.793Z,100074.92
2019-06-07T04:07:57.459Z,100076.08
2019-06-07T04:12:05.346Z,100076.62
2019-06-07T04:16:13.348Z,100072.05
2019-06-07T04:20:21.400Z,100073.20
2019-06-07T04:24:31.032Z,100087.39
2019-06-07T04:29:30.741Z,100088.85
2019-06-07T04:32:49.666Z,100093.11
2019-06-07T04:36:59.766Z,100101.67
2019-06-07T04:41:08.226Z,100111.55
2019-06-07T04:45:33.013Z,100125.03
2019-06-07T04:49:27.146Z,100126.22
2019-06-07T04:53:38.103Z,100128.09
2019-06-07T04:57:44.737Z,100137.91
2019-06-07T05:01:53.006Z,100143.16
2019-06-07T05:06:01.164Z,100142.41
2019-06-07T05:10:09.560Z,100155.47
2019-06-07T05:14:17.571Z,100164.08
2019-06-07T05:18:26.328Z,100162.66
2019-06-07T05:22:38.910Z,100159.72
2019-06-07T05:26:43.858Z,100167.02
2019-06-07T05:31:08.126Z,100163.95
2019-06-07T05:35:02.393Z,100170.03
2019-06-07T05:39:10.781Z,100173.12
2019-06-07T05:43:26.493Z,100178.33
2019-06-07T05:47:38.443Z,100182.45
2019-06-07T05:51:45.068Z,100181.63
2019-06-07T05:55:53.731Z,100184.94
2019-06-07T06:00:01.765Z,100184.58
2019-06-07T06:04:09.783Z,100176.92
2019-06-07T06:08:17.834Z,100175.80
2019-06-07T06:12:35.351Z,100175.80
2019-06-07T06:16:37.196Z,100181.83
2019-06-07T06:21:09.795Z,100182.14
2019-06-07T06:25:30.118Z,100183.33
2019-06-07T06:29:05.295Z,100183.33
2019-06-07T06:33:30.781Z,100194.48
2019-06-07T06:37:23.046Z,100192.52
2019-06-07T06:41:30.992Z,100180.25
2019-06-07T06:45:40.182Z,100193.54
2019-06-07T06:49:50.013Z,100202.55
2019-06-07T06:53:57.960Z,100202.55
2019-06-07T06:58:06.308Z,100200.89
2019-06-07T07:02:14.114Z,100204.23
2019-06-07T07:06:26.502Z,100208.46
2019-06-07T07:10:41.270Z,100207.94
2019-06-07T07:14:51.802Z,100205.80
2019-06-07T07:18:58.002Z,100204.33
2019-06-07T07:23:06.674Z,100198.70
2019-06-07T07:27:14.654Z,100211.56
2019-06-07T07:31:22.112Z,100202.77
2019-06-07T07:35:30.227Z,100202.09
2019-06-07T07:39:37.782Z,100204.48
2019-06-07T07:43:52.920Z,100202.92
2019-06-07T07:48:11.086Z,100206.75
2019-06-07T07:52:05.667Z,100211.23
2019-06-07T07:56:14.026Z,100204.41
2019-06-07T08:00:49.994Z,100205.30
2019-06-07T08:05:13.056Z,100215.70
2019-06-07T08:08:42.766Z,100216.42
2019-06-07T08:13:14.446Z,100219.59
2019-06-07T08:17:01.916Z,100217.32
2019-06-07T08:21:24.392Z,100254.06
2019-06-07T08:25:20.124Z,100254.06
2019-06-07T08:29:43.853Z,100256.58
2019-06-07T08:33:37.505Z,100251.36
2019-06-07T08:42:14.098Z,100260.38
2019-06-07T08:46:07.790Z,100264.76
2019-06-07T08:50:15.429Z,100248.58
2019-06-07T08:54:23.680Z,100256.47
2019-06-07T08:58:31.150Z,100265.27
2019-06-07T09:02:39.260Z,100262.86
2019-06-07T09:07:06.719Z,100262.86
2019-06-07T09:10:58.932Z,100243.22
2019-06-07T09:15:21.012Z,100243.22
2019-06-07T09:19:16.573Z,100236.41
2019-06-07T09:23:24.385Z,100239.94
2019-06-07T09:27:32.726Z,100246.52
2019-06-07T09:31:52.537Z,100238.41
2019-06-07T09:35:50.410Z,100242.84
2019-06-07T09:40:05.648Z,100243.45
2019-06-07T09:44:21.589Z,100235.29
2019-06-07T09:49:01.340Z,100234.13
2019-06-07T09:52:26.984Z,100223.64
2019-06-07T09:56:35.053Z,100216.45
2019-06-07T10:00:43.149Z,100224.45
2019-06-07T10:04:50.737Z,100229.17
2019-06-07T10:10:07.109Z,100230.21
2019-06-07T10:13:08.895Z,100223.63
2019-06-07T10:17:18.242Z,100221.91
2019-06-07T10:21:25.862Z,100220.05
2019-06-07T10:25:33.918Z,100213.17
2019-06-07T10:29:41.514Z,100217.21
2019-06-07T10:33:49.573Z,100211.80
2019-06-07T10:37:58.341Z,100208.16
2019-06-07T10:42:07.651Z,100201.07
2019-06-07T10:46:16.023Z,100195.65
2019-06-07T10:50:24.301Z,100192.81
2019-06-07T10:54:31.853Z,100181.88
2019-06-07T10:58:40.942Z,100174.97
2019-06-07T11:02:48.436Z,100166.54
2019-06-07T11:06:56.498Z,100172.09
2019-06-07T11:11:04.471Z,100176.61
2019-06-07T11:15:13.052Z,100170.45
2019-06-07T11:19:21.067Z,100172.49
2019-06-07T11:23:28.651Z,100166.77
2019-06-07T11:27:36.719Z,100173.19
2019-06-07T11:31:47.394Z,100180.86
2019-06-07T11:35:55.294Z,100182.03
2019-06-07T11:40:03.310Z,100179.37
2019-06-07T11:44:11.245Z,100171.33
2019-06-07T11:48:19.266Z,100171.44
2019-06-07T11:52:26.940Z,100173.57
2019-06-07T11:56:36.650Z,100157.61
2019-06-07T12:00:44.842Z,100168.93
2019-06-07T12:04:53.865Z,100157.81
2019-06-07T12:09:01.770Z,100152.23
2019-06-07T12:13:12.598Z,100144.73
2019-06-07T12:17:20.984Z,100146.86
2019-06-07T12:21:28.708Z,100139.08
2019-06-07T12:25:37.378Z,100136.72
2019-06-07T12:29:45.170Z,100155.58
2019-06-07T12:33:53.422Z,100145.95
2019-06-07T12:38:01.597Z,100158.86
2019-06-07T12:42:10.033Z,100151.36
2019-06-07T12:46:24.291Z,100151.84
2019-06-07T12:50:41.935Z,100150.80
2019-06-07T12:54:37.687Z,100140.78
2019-06-07T12:58:45.658Z,100133.92
2019-06-07T13:02:53.740Z,100127.66
2019-06-07T13:07:01.646Z,100116.62
2019-06-07T13:11:17.415Z,100110.40
2019-06-07T13:15:21.594Z,100107.02
2019-06-07T13:19:28.684Z,100113.53
2019-06-07T13:23:36.806Z,100107.35
2019-06-07T13:27:44.632Z,100101.02
2019-06-07T13:31:52.209Z,100093.74
2019-06-07T13:36:00.712Z,100096.08
2019-06-07T13:40:10.087Z,100096.31
2019-06-07T13:44:18.690Z,100086.62
2019-06-07T13:48:27.748Z,100075.69
2019-06-07T13:52:35.915Z,100086.73
2019-06-07T13:57:01.386Z,100079.61
2019-06-07T14:00:54.677Z,100079.06
2019-06-07T14:05:02.605Z,100073.77
2019-06-07T14:09:10.810Z,100079.76
2019-06-07T14:13:19.485Z,100079.16
2019-06-07T14:17:28.251Z,100080.08
2019-06-07T14:21:37.001Z,100078.80
2019-06-07T14:25:46.028Z,100079.59
2019-06-07T14:29:53.708Z,100082.00
2019-06-07T14:34:02.271Z,100082.53
2019-06-07T14:38:10.783Z,100083.16
2019-06-07T14:42:18.911Z,100094.19
2019-06-07T14:46:28.194Z,100095.27
2019-06-07T14:50:36.401Z,100091.72
2019-06-07T14:54:44.024Z,100096.61
2019-06-07T14:58:52.201Z,100089.81
2019-06-07T15:03:00.018Z,100087.22
2019-06-07T15:07:09.573Z,100091.02
2019-06-07T15:11:17.561Z,100088.53
2019-06-07T15:15:26.417Z,100086.59
2019-06-07T15:19:36.256Z,100087.72
2019-06-07T15:23:45.605Z,100092.08
2019-06-07T15:27:53.756Z,100103.30
2019-06-07T15:32:01.271Z,100102.88
2019-06-07T15:36:09.485Z,100098.70
2019-06-07T15:40:17.580Z,100101.08
2019-06-07T15:44:25.666Z,100105.83
2019-06-07T15:48:33.980Z,100097.87
2019-06-07T15:52:43.360Z,100107.37
2019-06-07T15:56:51.328Z,100100.20
2019-06-07T16:00:58.981Z,100112.41
2019-06-07T16:05:07.468Z,100119.23
2019-06-07T16:09:15.303Z,100117.23
2019-06-07T16:13:24.519Z,100120.38
2019-06-07T16:17:32.992Z,100128.34
2019-06-07T16:21:41.518Z,100131.91
2019-06-07T16:25:49.203Z,100141.09
2019-06-07T16:29:57.214Z,100143.88
2019-06-07T16:34:05.422Z,100143.88
2019-06-07T16:38:13.393Z,100160.05
2019-06-07T16:42:21.557Z,100144.61
2019-06-07T16:46:29.751Z,100152.98
2019-06-07T16:50:37.290Z,100160.90
2019-06-07T16:54:45.802Z,100165.48
2019-06-07T16:58:54.195Z,100166.69
2019-06-07T17:03:02.256Z,100169.27
2019-06-07T17:07:11.074Z,100158.88
2019-06-07T17:11:19.163Z,100168.56
2019-06-07T17:15:26.759Z,100168.56
2019-06-07T17:19:34.634Z,100175.27
2019-06-07T17:23:43.790Z,100184.36
2019-06-07T17:27:52.180Z,100185.38
2019-06-07T17:31:59.985Z,100188.03
2019-06-07T17:36:08.355Z,100182.95
2019-06-07T17:40:18.931Z,100176.96
2019-06-07T17:44:26.818Z,100184.47
2019-06-07T17:48:34.615Z,100179.92
2019-06-07T17:52:43.788Z,100184.25
2019-06-07T17:56:53.247Z,100184.25
2019-06-07T18:01:03.298Z,100180.82
2019-06-07T18:05:12.102Z,100171.58
2019-06-07T18:09:20.636Z,100175.91
2019-06-07T18:13:28.621Z,100183.20
2019-06-07T18:17:37.186Z,100188.80
2019-06-07T18:21:45.260Z,100188.80
2019-06-07T18:25:54.706Z,100192.59
2019-06-07T18:30:11.343Z,100216.94
2019-06-07T18:34:12.859Z,100216.94
2019-06-07T18:38:21.014Z,100215.46
2019-06-07T18:42:29.506Z,100220.78
2019-06-07T18:46:37.625Z,100222.80
2019-06-07T18:50:46.415Z,100227.67
2019-06-07T18:54:55.116Z,100227.67
2019-06-07T18:59:02.989Z,100230.16
2019-06-07T19:03:10.794Z,100230.16
2019-06-07T19:07:18.432Z,100231.48
2019-06-07T19:11:26.698Z,100219.17
2019-06-07T19:15:34.682Z,100217.79
2019-06-07T19:19:43.045Z,100214.44
2019-06-07T19:23:51.755Z,100230.25
2019-06-07T19:28:01.058Z,100245.64
2019-06-07T19:32:08.707Z,100242.08
2019-06-07T19:36:16.836Z,100232.33
2019-06-07T19:40:25.884Z,100238.84
2019-06-07T19:44:33.818Z,100236.35
2019-06-07T19:48:42.117Z,100249.17
2019-06-07T19:52:50.228Z,100241.36
2019-06-07T19:56:59.459Z,100239.33
2019-06-07T20:01:07.704Z,100247.36
2019-06-07T20:05:16.460Z,100247.36
2019-06-07T20:09:25.045Z,100236.40
2019-06-07T20:13:32.550Z,100241.70
2019-06-07T20:17:40.686Z,100236.11
2019-06-07T20:21:48.612Z,100236.63
2019-06-07T20:25:56.708Z,100246.89
2019-06-07T20:30:05.504Z,100246.89
2019-06-07T20:34:13.124Z,100245.28
2019-06-07T20:38:21.369Z,100253.70
2019-06-07T20:42:29.243Z,100250.77
2019-06-07T20:46:37.339Z,100259.02
2019-06-07T20:50:45.708Z,100249.20
2019-06-07T20:54:53.597Z,100253.80
2019-06-07T20:59:02.807Z,100254.59
2019-06-07T21:03:10.648Z,100256.14
2019-06-07T21:07:18.576Z,100265.64
2019-06-07T21:11:26.609Z,100259.25
2019-06-07T21:15:47.887Z,100258.56
2019-06-07T21:19:44.660Z,100261.47
2019-06-07T21:23:52.594Z,100257.06
2019-06-07T21:28:01.024Z,100260.20
2019-06-07T21:32:11.643Z,100258.13
2019-06-07T21:36:19.498Z,100249.33
2019-06-07T21:40:27.753Z,100249.33
2019-06-07T21:44:35.527Z,100260.97
2019-06-07T21:48:44.043Z,100242.22
2019-06-07T21:52:52.811Z,100254.37
2019-06-07T21:57:00.479Z,100254.37
2019-06-07T22:01:18.396Z,100258.26
2019-06-07T22:05:26.565Z,100246.91
2019-06-07T22:09:34.341Z,100232.52
2019-06-07T22:13:43.614Z,100237.98
2019-06-07T22:17:51.369Z,100237.98
2019-06-07T22:22:02.910Z,100237.84
2019-06-07T22:26:11.273Z,100233.59
2019-06-07T22:30:19.244Z,100233.59
2019-06-07T22:34:27.592Z,100238.11
2019-06-07T22:38:35.378Z,100239.92
2019-06-07T22:42:43.320Z,100232.95
2019-06-07T22:46:51.331Z,100235.66
2019-06-07T22:51:00.382Z,100224.80
2019-06-07T22:55:10.688Z,100221.03
2019-06-07T22:59:20.645Z,100228.80
2019-06-07T23:03:28.477Z,100218.32
2019-06-07T23:07:37.356Z,100212.61
2019-06-07T23:11:45.025Z,100212.14
2019-06-07T23:15:53.442Z,100214.48
2019-06-07T23:20:01.446Z,100214.52
2019-06-07T23:24:09.807Z,100216.45
2019-06-07T23:28:18.775Z,100214.88
2019-06-07T23:32:26.569Z,100210.00
2019-06-07T23:36:34.771Z,100208.36
2019-06-07T23:40:43.120Z,100205.84
2019-06-07T23:44:50.592Z,100206.84
2019-06-07T23:48:58.591Z,100204.56
2019-06-07T23:53:06.509Z,100203.80
2019-06-07T23:57:14.072Z,100197.53
